Time;durP1;ratioP1;P1;durP2;ratioP2;P2;SDS_P1;SDS_P2;PMS_P1;PMS_P2;Temp;Humidity;BMP_temperature;BMP_pressure;BME280_temperature;BME280_humidity;BME280_pressure;Samples;Min_cycle;Max_cycle;Signal;HPM_P1;HPM_P2
2023/01/14 00:02:02;;;;;;;;;;;7.50;99.90;;;;;;5035390;28;19927;-74
2023/01/14 00:04:27;;;;;;;;;;;7.10;99.90;;;;;;5034322;28;19935;-74
2023/01/14 00:06:53;;;;;;;;;;;7.20;99.90;;;;;;5034074;28;19931;-75
2023/01/14 00:09:18;;;;;;;;;;;7.20;99.90;;;;;;5013449;28;19936;-75
2023/01/14 00:11:47;;;;;;;;;;;8.00;99.90;;;;;;5033841;28;19921;-74
2023/01/14 00:14:14;;;;;;;;;;;7.40;99.90;;;;;;5015758;28;20381;-73
2023/01/14 00:16:40;;;;;;;;;;;8.60;99.90;;;;;;5031772;28;19921;-73
2023/01/14 00:19:05;;;;;;;;;;;7.30;99.90;;;;;;5033097;28;19928;-73
2023/01/14 00:21:34;;;;;;;;;;;7.70;99.90;;;;;;5032954;28;19928;-73
2023/01/14 00:23:59;;;;;;;;;;;8.40;99.90;;;;;;5014726;28;20000;-73
2023/01/14 00:26:25;;;;;;;;;;;8.20;99.90;;;;;;5015384;28;20025;-73
2023/01/14 00:28:51;;;;;;;;;;;7.40;99.90;;;;;;5012437;28;19917;-74
2023/01/14 00:31:18;;;;;;;;;;;8.80;99.90;;;;;;5016649;28;19952;-74
2023/01/14 00:33:44;;;;;;;;;;;9.50;99.90;;;;;;5011232;28;19925;-74
2023/01/14 00:36:11;;;;;;;;;;;8.80;99.90;;;;;;5033110;28;20269;-74
2023/01/14 00:38:37;;;;;;;;;;;7.50;99.90;;;;;;5015957;28;19921;-74
2023/01/14 00:41:04;;;;;;;;;;;7.50;99.90;;;;;;5015761;28;19921;-73
2023/01/14 00:43:30;;;;;;;;;;;7.50;99.90;;;;;;5033465;28;19921;-73
2023/01/14 00:45:56;;;;;;;;;;;8.80;99.90;;;;;;5015696;28;20075;-73
2023/01/14 00:48:21;;;;;;;;;;;7.70;99.90;;;;;;5033175;28;20392;-74
2023/01/14 00:50:47;;;;;;;;;;;7.50;99.90;;;;;;5029881;28;19921;-73
2023/01/14 00:53:12;;;;;;;;;;;7.50;99.90;;;;;;5016431;28;19974;-74
2023/01/14 00:55:38;;;;;;;;;;;7.60;99.90;;;;;;5032368;28;19916;-73
2023/01/14 00:58:03;;;;;;;;;;;8.20;99.90;;;;;;5015997;28;19932;-73
2023/01/14 01:00:29;;;;;;;;;;;7.60;99.90;;;;;;5014564;28;19924;-74
2023/01/14 01:02:54;;;;;;;;;;;7.50;99.90;;;;;;5033064;28;19928;-73
2023/01/14 01:05:20;;;;;;;;;;;7.60;99.90;;;;;;5033097;28;20443;-73
2023/01/14 01:07:45;;;;;;;;;;;8.10;99.90;;;;;;5033731;28;20343;-73
2023/01/14 01:10:11;;;;;;;;;;;8.90;99.90;;;;;;5031958;28;19986;-74
2023/01/14 01:12:36;;;;;;;;;;;7.40;99.90;;;;;;5015275;28;19929;-73
2023/01/14 01:15:02;;;;;;;;;;;7.50;99.90;;;;;;5015640;28;19975;-73
2023/01/14 01:17:28;;;;;;;;;;;7.50;99.90;;;;;;5032480;28;19971;-72
2023/01/14 01:19:54;;;;;;;;;;;7.50;99.90;;;;;;5033486;28;20403;-73
2023/01/14 01:22:20;;;;;;;;;;;7.50;99.90;;;;;;5033400;28;19960;-73
2023/01/14 01:24:45;;;;;;;;;;;7.70;99.90;;;;;;5032512;28;19925;-74
2023/01/14 01:27:14;;;;;;;;;;;7.50;99.90;;;;;;5033967;28;19927;-74
2023/01/14 01:29:39;;;;;;;;;;;9.50;99.90;;;;;;5015861;28;19987;-74
2023/01/14 01:32:05;;;;;;;;;;;8.50;99.90;;;;;;5032852;28;20381;-74
2023/01/14 01:34:30;;;;;;;;;;;7.50;99.90;;;;;;5033082;28;19917;-74
2023/01/14 01:36:56;;;;;;;;;;;7.90;99.90;;;;;;5032309;28;20426;-74
2023/01/14 01:39:21;;;;;;;;;;;7.50;99.90;;;;;;5015380;28;20336;-74
2023/01/14 01:41:47;;;;;;;;;;;7.50;99.90;;;;;;5033364;28;19967;-75
2023/01/14 01:44:12;;;;;;;;;;;7.50;99.90;;;;;;5032601;28;19974;-75
2023/01/14 01:46:38;;;;;;;;;;;7.50;99.90;;;;;;5015142;28;19921;-74
2023/01/14 01:49:03;;;;;;;;;;;6.30;99.90;;;;;;5033279;28;20360;-74
2023/01/14 01:51:31;;;;;;;;;;;7.50;99.90;;;;;;5031342;28;20055;-74
2023/01/14 01:53:57;;;;;;;;;;;7.40;99.90;;;;;;5015330;28;20019;-74
2023/01/14 01:56:24;;;;;;;;;;;7.60;99.90;;;;;;5013217;28;20364;-74
2023/01/14 01:58:51;;;;;;;;;;;7.40;99.90;;;;;;5014412;28;19921;-75
2023/01/14 02:01:16;;;;;;;;;;;7.40;99.90;;;;;;5014419;28;19921;-75
2023/01/14 02:03:45;;;;;;;;;;;7.40;99.90;;;;;;5032561;28;19943;-74
2023/01/14 02:06:11;;;;;;;;;;;7.40;99.90;;;;;;5031777;28;20300;-75
2023/01/14 02:08:39;;;;;;;;;;;7.40;99.90;;;;;;5032396;28;19932;-74
2023/01/14 02:11:04;;;;;;;;;;;8.00;99.90;;;;;;5029004;28;19928;-74
2023/01/14 02:13:35;;;;;;;;;;;7.40;99.90;;;;;;5014037;28;20296;-74
2023/01/14 02:16:04;;;;;;;;;;;8.50;99.90;;;;;;5032225;28;20308;-74
2023/01/14 02:18:35;;;;;;;;;;;7.40;99.90;;;;;;5014469;28;20308;-74
2023/01/14 02:21:10;;;;;;;;;;;7.30;99.90;;;;;;5031860;28;19924;-74
2023/01/14 02:23:52;;;;;;;;;;;7.40;99.90;;;;;;5028922;28;19921;-74
2023/01/14 02:26:18;;;;;;;;;;;7.30;99.90;;;;;;5029471;28;19921;-74
2023/01/14 02:28:52;;;;;;;;;;;8.40;99.90;;;;;;5032378;28;19931;-75
2023/01/14 02:31:28;;;;;;;;;;;7.30;99.90;;;;;;5014084;28;20365;-74
2023/01/14 02:33:57;;;;;;;;;;;7.30;99.90;;;;;;5031643;28;19929;-75
2023/01/14 02:36:39;;;;;;;;;;;7.30;99.90;;;;;;5013458;28;19925;-72
2023/01/14 02:39:12;;;;;;;;;;;7.30;99.90;;;;;;5029047;28;19921;-72
2023/01/14 02:44:27;;;;;;;;;;;7.30;99.90;;;;;;5031600;28;19920;-73
2023/01/14 02:46:57;;;;;;;;;;;7.30;99.90;;;;;;5032178;28;20014;-73
2023/01/14 02:49:25;;;;;;;;;;;7.20;99.90;;;;;;5031050;28;20037;-73
2023/01/14 02:51:50;;;;;;;;;;;7.10;99.90;;;;;;5032043;28;19921;-73
2023/01/14 02:54:19;;;;;;;;;;;7.00;99.90;;;;;;5012953;28;19921;-73
2023/01/14 02:56:45;;;;;;;;;;;7.00;99.90;;;;;;5032091;28;19927;-73
2023/01/14 02:59:30;;;;;;;;;;;7.70;99.90;;;;;;5032043;28;19971;-73
2023/01/14 03:02:17;;;;;;;;;;;6.80;99.90;;;;;;5027437;28;19987;-73
2023/01/14 03:04:45;;;;;;;;;;;6.70;99.90;;;;;;5029771;28;19921;-72
2023/01/14 03:07:21;;;;;;;;;;;6.70;99.90;;;;;;5031762;28;19921;-73
2023/01/14 03:09:53;;;;;;;;;;;6.50;99.90;;;;;;5030883;28;19921;-73
2023/01/14 03:12:33;;;;;;;;;;;6.40;99.90;;;;;;5013717;28;19921;-72
2023/01/14 03:15:04;;;;;;;;;;;7.70;99.90;;;;;;5014100;28;20790;-73
2023/01/14 03:17:36;;;;;;;;;;;6.50;99.90;;;;;;5031139;28;19921;-73
2023/01/14 03:20:12;;;;;;;;;;;6.30;99.90;;;;;;5031599;28;20394;-73
2023/01/14 03:22:37;;;;;;;;;;;6.20;99.90;;;;;;5012819;28;19957;-73
2023/01/14 03:25:03;;;;;;;;;;;7.10;99.90;;;;;;5013822;28;19952;-73
2023/01/14 03:27:31;;;;;;;;;;;6.00;99.90;;;;;;5031003;28;20387;-73
2023/01/14 03:30:01;;;;;;;;;;;5.90;99.90;;;;;;5012896;28;19928;-73
2023/01/14 03:32:30;;;;;;;;;;;5.70;99.90;;;;;;5013251;28;19972;-74
2023/01/14 03:34:58;;;;;;;;;;;5.70;99.90;;;;;;5016590;28;19921;-74
2023/01/14 03:37:25;;;;;;;;;;;6.50;99.90;;;;;;5034597;28;19995;-73
2023/01/14 03:39:51;;;;;;;;;;;5.40;99.90;;;;;;5017896;28;19921;-74
2023/01/14 03:42:19;;;;;;;;;;;5.30;99.90;;;;;;5017007;28;19921;-73
2023/01/14 03:44:53;;;;;;;;;;;7.00;99.90;;;;;;5034435;28;19975;-74
2023/01/14 03:47:21;;;;;;;;;;;5.30;99.90;;;;;;5013308;28;19956;-73
2023/01/14 03:49:47;;;;;;;;;;;5.30;99.90;;;;;;5017266;28;19925;-74
2023/01/14 03:52:13;;;;;;;;;;;5.90;99.90;;;;;;5034772;28;19925;-73
2023/01/14 03:54:55;;;;;;;;;;;5.20;99.90;;;;;;5034694;28;19921;-73
2023/01/14 03:57:40;;;;;;;;;;;5.20;99.90;;;;;;5031445;28;19921;-73
2023/01/14 04:00:19;;;;;;;;;;;5.30;99.90;;;;;;5017037;28;20396;-74
2023/01/14 04:02:45;;;;;;;;;;;5.30;99.90;;;;;;5017141;28;19971;-74
2023/01/14 04:05:11;;;;;;;;;;;5.40;99.90;;;;;;5017600;28;20011;-73
2023/01/14 04:07:36;;;;;;;;;;;5.30;99.90;;;;;;5035159;28;20353;-73
2023/01/14 04:10:02;;;;;;;;;;;6.30;99.90;;;;;;5034577;28;19917;-73
2023/01/14 04:12:27;;;;;;;;;;;5.20;99.90;;;;;;5034025;28;19929;-73
2023/01/14 04:17:37;;;;;;;;;;;5.20;99.90;;;;;;5033402;28;19924;-73
2023/01/14 04:20:06;;;;;;;;;;;5.80;99.90;;;;;;5033537;28;20283;-73
2023/01/14 04:22:32;;;;;;;;;;;5.20;99.90;;;;;;5032992;28;19925;-74
2023/01/14 04:24:57;;;;;;;;;;;5.20;99.90;;;;;;5032814;28;19928;-73
2023/01/14 04:27:23;;;;;;;;;;;6.40;99.90;;;;;;5033774;28;19921;-74
2023/01/14 04:29:48;;;;;;;;;;;6.60;99.90;;;;;;5034433;28;19928;-74
2023/01/14 04:32:14;;;;;;;;;;;6.50;99.90;;;;;;5032833;28;19931;-73
2023/01/14 04:34:39;;;;;;;;;;;5.30;99.90;;;;;;5033890;28;20004;-74
2023/01/14 04:37:07;;;;;;;;;;;5.90;99.90;;;;;;5058398;28;20003;-73
2023/01/14 04:39:33;;;;;;;;;;;5.60;99.90;;;;;;5034559;28;19921;-73
2023/01/14 04:42:32;;;;;;;;;;;6.90;99.90;;;;;;5032161;28;19932;-73
2023/01/14 04:44:53;;;;;;;;;;;5.50;99.90;;;;;;5030142;28;19921;-73
2023/01/14 04:47:19;;;;;;;;;;;5.50;99.90;;;;;;5033389;28;19921;-73
2023/01/14 04:49:45;;;;;;;;;;;5.50;99.90;;;;;;5032753;28;19928;-74
2023/01/14 04:52:10;;;;;;;;;;;6.60;99.90;;;;;;5033004;28;19925;-74
2023/01/14 04:54:36;;;;;;;;;;;6.70;99.90;;;;;;5031743;28;20299;-73
2023/01/14 04:57:01;;;;;;;;;;;5.50;99.90;;;;;;5033140;28;19947;-73
2023/01/14 04:59:27;;;;;;;;;;;5.50;99.90;;;;;;5033734;28;19921;-73
2023/01/14 05:01:52;;;;;;;;;;;5.60;99.90;;;;;;5032087;28;19921;-73
2023/01/14 05:04:18;;;;;;;;;;;5.60;99.90;;;;;;5033098;28;19921;-73
2023/01/14 05:06:43;;;;;;;;;;;5.60;99.90;;;;;;5033674;28;19929;-73
2023/01/14 05:09:09;;;;;;;;;;;5.60;99.90;;;;;;5015636;28;20011;-73
2023/01/14 05:11:34;;;;;;;;;;;6.70;99.90;;;;;;5033929;28;20004;-73
2023/01/14 05:14:00;;;;;;;;;;;6.20;99.90;;;;;;5015917;28;19964;-73
2023/01/14 05:16:28;;;;;;;;;;;6.00;99.90;;;;;;5015229;28;19928;-73
2023/01/14 05:18:54;;;;;;;;;;;6.00;99.90;;;;;;5033287;28;19975;-73
2023/01/14 05:21:20;;;;;;;;;;;6.30;99.90;;;;;;5016072;28;19976;-73
2023/01/14 05:23:45;;;;;;;;;;;6.10;99.90;;;;;;5032680;28;19921;-73
2023/01/14 05:26:11;;;;;;;;;;;6.20;99.90;;;;;;5033330;28;19975;-73
2023/01/14 05:28:37;;;;;;;;;;;6.10;99.90;;;;;;5015202;28;19920;-73
2023/01/14 05:31:03;;;;;;;;;;;7.50;99.90;;;;;;5015394;28;20350;-73
2023/01/14 05:33:31;;;;;;;;;;;6.10;99.90;;;;;;5011227;28;19921;-73
2023/01/14 05:35:58;;;;;;;;;;;7.50;99.90;;;;;;5032515;28;19921;-73
2023/01/14 05:38:24;;;;;;;;;;;8.00;99.90;;;;;;5015654;28;19967;-73
2023/01/14 05:40:49;;;;;;;;;;;6.20;99.90;;;;;;5033291;28;19920;-73
2023/01/14 05:46:04;;;;;;;;;;;6.40;99.90;;;;;;5029536;28;19929;-74
2023/01/14 05:48:29;;;;;;;;;;;6.30;99.90;;;;;;5028003;28;19957;-73
2023/01/14 05:50:56;;;;;;;;;;;6.30;99.90;;;;;;5015080;28;19975;-74
2023/01/14 05:53:25;;;;;;;;;;;6.30;99.90;;;;;;5032132;28;19928;-74
2023/01/14 05:55:54;;;;;;;;;;;6.40;99.90;;;;;;5040341;28;19921;-74
2023/01/14 05:58:20;;;;;;;;;;;7.60;99.90;;;;;;5032019;28;19928;-74
2023/01/14 06:06:23;;;;;;;;;;;6.40;99.90;;;;;;5024341;28;19925;-74
2023/01/14 06:08:49;;;;;;;;;;;8.70;99.90;;;;;;5033205;28;20816;-74
2023/01/14 06:11:14;;;;;;;;;;;7.60;99.90;;;;;;5030458;28;20024;-74
2023/01/14 06:13:40;;;;;;;;;;;6.40;99.90;;;;;;5031252;28;19927;-73
2023/01/14 06:16:08;;;;;;;;;;;6.40;99.90;;;;;;5032686;28;20026;-74
2023/01/14 06:18:43;;;;;;;;;;;6.50;99.90;;;;;;5031187;28;19929;-74
2023/01/14 06:21:10;;;;;;;;;;;6.50;99.90;;;;;;5032503;28;20018;-74
2023/01/14 06:23:35;;;;;;;;;;;7.50;99.90;;;;;;5031126;28;19928;-73
2023/01/14 06:26:01;;;;;;;;;;;6.40;99.90;;;;;;5032220;28;19921;-73
2023/01/14 06:28:28;;;;;;;;;;;7.10;99.90;;;;;;5032506;28;19921;-73
2023/01/14 06:30:54;;;;;;;;;;;7.80;99.90;;;;;;5030875;28;19925;-73
2023/01/14 06:33:19;;;;;;;;;;;6.30;99.90;;;;;;5030519;28;20369;-74
2023/01/14 06:35:45;;;;;;;;;;;7.20;99.90;;;;;;5030856;28;19927;-74
2023/01/14 06:38:13;;;;;;;;;;;6.40;99.90;;;;;;5030874;28;19921;-75
2023/01/14 06:40:40;;;;;;;;;;;6.20;99.90;;;;;;5029617;28;19925;-74
2023/01/14 06:43:06;;;;;;;;;;;6.40;99.90;;;;;;5031939;28;19921;-74
2023/01/14 06:45:31;;;;;;;;;;;6.90;99.90;;;;;;5030443;28;19952;-74
2023/01/14 06:47:57;;;;;;;;;;;6.40;99.90;;;;;;5029699;28;19975;-73
2023/01/14 06:50:23;;;;;;;;;;;7.60;99.90;;;;;;5031414;28;20300;-74
2023/01/14 06:52:48;;;;;;;;;;;7.20;99.90;;;;;;5030597;28;19921;-74
2023/01/14 06:55:14;;;;;;;;;;;6.40;99.90;;;;;;5029305;28;19979;-72
2023/01/14 06:57:40;;;;;;;;;;;7.60;99.90;;;;;;5030763;28;20385;-73
2023/01/14 07:00:06;;;;;;;;;;;6.40;99.90;;;;;;5031022;28;19928;-73
2023/01/14 07:02:32;;;;;;;;;;;6.30;99.90;;;;;;5029534;28;19975;-73
2023/01/14 07:04:57;;;;;;;;;;;6.80;99.90;;;;;;5055402;28;19968;-73
2023/01/14 07:07:23;;;;;;;;;;;6.40;99.90;;;;;;5013085;28;19975;-73
2023/01/14 07:09:48;;;;;;;;;;;6.40;99.90;;;;;;5013605;28;19925;-73
2023/01/14 07:12:14;;;;;;;;;;;6.40;99.90;;;;;;5013765;28;19971;-73
2023/01/14 07:14:39;;;;;;;;;;;6.90;99.90;;;;;;5012681;28;20018;-73
2023/01/14 07:17:05;;;;;;;;;;;7.20;99.90;;;;;;5014590;28;20276;-73
2023/01/14 07:19:30;;;;;;;;;;;6.50;99.90;;;;;;5031685;28;19921;-73
2023/01/14 07:21:56;;;;;;;;;;;7.60;99.90;;;;;;5031134;28;19928;-73
2023/01/14 07:24:21;;;;;;;;;;;8.80;99.90;;;;;;5013337;28;19921;-73
2023/01/14 07:26:47;;;;;;;;;;;6.80;99.90;;;;;;5031836;28;19975;-73
2023/01/14 07:29:14;;;;;;;;;;;6.40;99.90;;;;;;5013013;28;19928;-74
2023/01/14 07:31:40;;;;;;;;;;;6.40;99.90;;;;;;5031405;28;19968;-73
2023/01/14 07:34:05;;;;;;;;;;;7.60;99.90;;;;;;5031614;28;20438;-74
2023/01/14 07:36:31;;;;;;;;;;;6.80;99.90;;;;;;5013015;28;20016;-75
2023/01/14 07:38:59;;;;;;;;;;;7.20;99.90;;;;;;5013974;28;19924;-73
2023/01/14 07:41:25;;;;;;;;;;;6.40;99.90;;;;;;5013675;28;20266;-74
2023/01/14 07:43:50;;;;;;;;;;;6.40;99.90;;;;;;5030483;28;19921;-73
2023/01/14 07:46:16;;;;;;;;;;;6.20;99.90;;;;;;5013635;28;19975;-73
2023/01/14 07:48:44;;;;;;;;;;;6.30;99.90;;;;;;5031828;28;19975;-73
2023/01/14 07:51:10;;;;;;;;;;;6.40;99.90;;;;;;5030764;28;20011;-74
2023/01/14 07:53:36;;;;;;;;;;;6.40;99.90;;;;;;5013429;28;20300;-73
2023/01/14 07:56:02;;;;;;;;;;;7.90;99.90;;;;;;5013780;28;19927;-73
2023/01/14 07:58:28;;;;;;;;;;;7.70;99.90;;;;;;5011895;28;19968;-72
2023/01/14 08:00:53;;;;;;;;;;;6.40;99.90;;;;;;5031453;28;19991;-73
2023/01/14 08:03:19;;;;;;;;;;;6.80;99.90;;;;;;5012519;28;19928;-74
2023/01/14 08:05:45;;;;;;;;;;;6.50;99.90;;;;;;5030252;28;19932;-73
2023/01/14 08:08:13;;;;;;;;;;;7.50;99.90;;;;;;5031234;28;19921;-73
2023/01/14 08:10:39;;;;;;;;;;;7.10;99.90;;;;;;5030495;28;20449;-73
2023/01/14 08:13:05;;;;;;;;;;;7.30;99.90;;;;;;5013189;28;19920;-74
2023/01/14 08:15:30;;;;;;;;;;;7.80;99.90;;;;;;5030787;28;20373;-73
2023/01/14 08:17:56;;;;;;;;;;;6.30;99.90;;;;;;5030515;28;19928;-73
2023/01/14 08:20:22;;;;;;;;;;;7.50;99.90;;;;;;5014947;28;20297;-74
2023/01/14 08:22:50;;;;;;;;;;;6.50;99.90;;;;;;5034488;28;19925;-73
2023/01/14 08:25:16;;;;;;;;;;;7.30;99.90;;;;;;5033346;28;19971;-73
2023/01/14 08:27:41;;;;;;;;;;;6.30;99.90;;;;;;5015887;28;19968;-75
2023/01/14 08:30:07;;;;;;;;;;;6.30;99.90;;;;;;5016088;28;19928;-73
2023/01/14 08:32:33;;;;;;;;;;;6.30;99.90;;;;;;5033254;28;20500;-74
2023/01/14 08:34:58;;;;;;;;;;;6.70;99.90;;;;;;5016639;28;19925;-74
2023/01/14 08:37:24;;;;;;;;;;;6.60;99.90;;;;;;5034030;28;19936;-74
2023/01/14 08:39:52;;;;;;;;;;;6.30;99.90;;;;;;5033898;28;19927;-72
2023/01/14 08:42:17;;;;;;;;;;;6.40;99.90;;;;;;5016341;28;20340;-72
2023/01/14 08:44:43;;;;;;;;;;;6.30;99.90;;;;;;5033543;28;20075;-73
2023/01/14 08:47:09;;;;;;;;;;;7.20;99.90;;;;;;5015990;28;19920;-75
2023/01/14 08:49:34;;;;;;;;;;;8.00;99.90;;;;;;5015764;28;20369;-72
2023/01/14 08:52:00;;;;;;;;;;;6.30;99.90;;;;;;5033530;28;19920;-73
2023/01/14 08:54:25;;;;;;;;;;;6.30;99.90;;;;;;5014423;28;19925;-72
2023/01/14 08:56:53;;;;;;;;;;;6.70;99.90;;;;;;5033560;28;20440;-71
2023/01/14 08:59:18;;;;;;;;;;;6.30;99.90;;;;;;5015568;28;20400;-71
2023/01/14 09:01:44;;;;;;;;;;;6.40;99.90;;;;;;5031206;28;19929;-70
2023/01/14 09:04:19;;;;;;;;;;;6.40;99.90;;;;;;5014149;28;19921;-70
2023/01/14 09:17:44;;;;;;;;;;;8.30;99.90;;;;;;5014387;28;19929;-70
2023/01/14 09:20:12;;;;;;;;;;;8.00;99.90;;;;;;5033720;28;19928;-71
2023/01/14 09:22:40;;;;;;;;;;;6.10;99.90;;;;;;5015573;28;19921;-73
2023/01/14 09:25:06;;;;;;;;;;;8.60;99.90;;;;;;5033350;28;19928;-74
2023/01/14 09:27:32;;;;;;;;;;;6.40;99.90;;;;;;5033558;28;20295;-76
2023/01/14 09:29:58;;;;;;;;;;;6.40;99.90;;;;;;5023568;28;19951;-75
2023/01/14 09:32:23;;;;;;;;;;;7.10;99.90;;;;;;5010650;28;19921;-72
2023/01/14 09:34:50;;;;;;;;;;;8.80;99.90;;;;;;5030632;28;19929;-73
2023/01/14 09:37:16;;;;;;;;;;;6.30;99.90;;;;;;5028995;28;19927;-70
2023/01/14 09:39:41;;;;;;;;;;;9.00;99.90;;;;;;5031018;28;19921;-72
2023/01/14 09:42:12;;;;;;;;;;;7.80;99.90;;;;;;5013763;28;19971;-80
2023/01/14 09:44:40;;;;;;;;;;;6.50;99.90;;;;;;5014388;28;20292;-80
2023/01/14 09:47:07;;;;;;;;;;;7.80;99.90;;;;;;5014378;28;19921;-71
2023/01/14 09:49:34;;;;;;;;;;;6.90;99.90;;;;;;5013694;28;19999;-70
2023/01/14 09:52:10;;;;;;;;;;;6.40;99.90;;;;;;5013428;28;19921;-69
2023/01/14 09:54:38;;;;;;;;;;;6.50;99.90;;;;;;5029924;28;20376;-71
2023/01/14 09:57:10;;;;;;;;;;;6.50;99.90;;;;;;5011360;28;19921;-72
2023/01/14 09:59:39;;;;;;;;;;;6.50;99.90;;;;;;5021156;28;19909;-72
2023/01/14 10:02:13;;;;;;;;;;;8.10;99.90;;;;;;5017210;28;19927;-76
2023/01/14 10:04:43;;;;;;;;;;;6.50;99.90;;;;;;5009829;28;19931;-75
2023/01/14 10:07:11;;;;;;;;;;;6.60;99.90;;;;;;5014212;28;20047;-70
2023/01/14 10:09:40;;;;;;;;;;;6.60;99.90;;;;;;5008856;28;19921;-73
2023/01/14 10:12:07;;;;;;;;;;;6.60;99.90;;;;;;5014364;28;20075;-70
2023/01/14 10:14:38;;;;;;;;;;;6.70;99.90;;;;;;5027230;28;19967;-68
2023/01/14 10:17:14;;;;;;;;;;;6.70;99.90;;;;;;5014644;28;20019;-71
2023/01/14 10:19:48;;;;;;;;;;;6.80;99.90;;;;;;5014305;28;19921;-70
2023/01/14 10:22:19;;;;;;;;;;;6.80;99.90;;;;;;5009954;28;20458;-70
2023/01/14 10:24:45;;;;;;;;;;;6.80;99.90;;;;;;5027092;28;19921;-68
2023/01/14 10:27:15;;;;;;;;;;;8.50;99.90;;;;;;5014038;28;19928;-70
2023/01/14 10:29:41;;;;;;;;;;;8.40;99.90;;;;;;5027729;28;20349;-69
2023/01/14 10:32:09;;;;;;;;;;;6.90;99.90;;;;;;5013342;28;19921;-68
2023/01/14 10:34:46;;;;;;;;;;;8.30;99.90;;;;;;5013763;28;20011;-71
2023/01/14 10:37:12;;;;;;;;;;;7.00;99.90;;;;;;5013724;28;19956;-72
2023/01/14 10:39:42;;;;;;;;;;;7.00;99.90;;;;;;5009077;28;19921;-69
2023/01/14 10:42:11;;;;;;;;;;;7.60;99.90;;;;;;5009792;28;19921;-72
2023/01/14 10:44:39;;;;;;;;;;;7.20;99.90;;;;;;5007963;28;19921;-70
2023/01/14 10:47:08;;;;;;;;;;;8.30;99.90;;;;;;5030464;28;19921;-69
2023/01/14 10:49:52;;;;;;;;;;;7.10;99.90;;;;;;5031506;28;19933;-70
2023/01/14 10:52:26;;;;;;;;;;;7.00;99.90;;;;;;5011757;28;19928;-69
2023/01/14 10:54:57;;;;;;;;;;;7.10;99.90;;;;;;5011133;28;20331;-76
2023/01/14 10:57:23;;;;;;;;;;;5.40;99.90;;;;;;5010428;28;19944;-70
2023/01/14 10:59:49;;;;;;;;;;;7.10;99.90;;;;;;5010773;28;20668;-73
2023/01/14 11:02:20;;;;;;;;;;;7.10;99.90;;;;;;5011258;28;19925;-71
2023/01/14 11:04:47;;;;;;;;;;;7.10;99.90;;;;;;5007170;28;19921;-71
2023/01/14 11:07:17;;;;;;;;;;;7.10;99.90;;;;;;5008739;28;19925;-72
2023/01/14 11:09:42;;;;;;;;;;;7.20;99.90;;;;;;5029415;28;19936;-72
2023/01/14 11:12:14;;;;;;;;;;;8.70;99.90;;;;;;5031321;28;19921;-71
2023/01/14 11:14:40;;;;;;;;;;;7.10;99.90;;;;;;5019008;28;20261;-70
2023/01/14 11:17:34;;;;;;;;;;;7.20;99.90;;;;;;5013369;28;20371;-70
2023/01/14 11:20:18;;;;;;;;;;;7.20;99.90;;;;;;5027750;28;19925;-70
2023/01/14 11:22:44;;;;;;;;;;;7.20;99.90;;;;;;5024426;28;19928;-72
2023/01/14 11:25:22;;;;;;;;;;;7.20;99.90;;;;;;5030890;28;20304;-71
2023/01/14 11:27:49;;;;;;;;;;;7.20;99.90;;;;;;5011966;28;20003;-71
2023/01/14 11:30:17;;;;;;;;;;;7.20;99.90;;;;;;5012976;28;19924;-71
2023/01/14 11:32:48;;;;;;;;;;;7.30;99.90;;;;;;5026160;28;20388;-74
2023/01/14 11:35:22;;;;;;;;;;;8.80;99.90;;;;;;5023540;28;19921;-71
2023/01/14 11:37:53;;;;;;;;;;;7.40;99.90;;;;;;5030816;28;19921;-71
2023/01/14 11:40:21;;;;;;;;;;;7.40;99.90;;;;;;5012466;28;19967;-72
2023/01/14 11:42:47;;;;;;;;;;;7.40;99.90;;;;;;5029473;28;20339;-72
2023/01/14 11:45:12;;;;;;;;;;;7.50;99.90;;;;;;5029847;28;19921;-72
2023/01/14 11:47:44;;;;;;;;;;;7.40;99.90;;;;;;5024473;28;19979;-72
2023/01/14 11:50:26;;;;;;;;;;;7.40;99.90;;;;;;5028458;28;19921;-71
2023/01/14 11:53:18;;;;;;;;;;;7.50;99.90;;;;;;5012382;28;19929;-71
2023/01/14 11:55:47;;;;;;;;;;;7.50;99.90;;;;;;5030106;28;19925;-70
2023/01/14 11:58:18;;;;;;;;;;;9.60;99.90;;;;;;5029836;28;19921;-70
2023/01/14 12:00:45;;;;;;;;;;;7.50;99.90;;;;;;5016266;28;19928;-70
2023/01/14 12:03:14;;;;;;;;;;;7.60;99.90;;;;;;5032827;28;20000;-71
2023/01/14 12:05:40;;;;;;;;;;;7.90;99.90;;;;;;5033663;28;19966;-71
2023/01/14 12:08:12;;;;;;;;;;;7.60;99.90;;;;;;5016142;28;19927;-71
2023/01/14 12:10:46;;;;;;;;;;;9.70;99.90;;;;;;5032875;28;20063;-70
2023/01/14 12:18:49;;;;;;;;;;;7.80;99.90;;;;;;5030778;28;20007;-70
2023/01/14 12:21:16;;;;;;;;;;;7.80;99.90;;;;;;5025408;28;20004;-71
2023/01/14 12:23:47;;;;;;;;;;;9.20;99.90;;;;;;5014811;28;19930;-70
2023/01/14 12:26:18;;;;;;;;;;;8.20;99.90;;;;;;5010843;28;20013;-69
2023/01/14 12:28:47;;;;;;;;;;;8.50;99.90;;;;;;5004111;28;20025;-68
2023/01/14 12:31:30;;;;;;;;;;;8.30;99.90;;;;;;5027105;28;19933;-70
2023/01/14 12:34:14;;;;;;;;;;;8.00;99.90;;;;;;5027719;28;20269;-70
2023/01/14 12:37:00;;;;;;;;;;;8.00;99.90;;;;;;5030853;28;19933;-70
2023/01/14 12:45:44;;;;;;;;;;;8.10;99.90;;;;;;5013942;28;20452;-71
2023/01/14 12:48:11;;;;;;;;;;;8.20;99.90;;;;;;5014026;28;20321;-70
2023/01/14 12:50:41;;;;;;;;;;;8.20;99.90;;;;;;5011892;28;19982;-71
2023/01/14 12:53:14;;;;;;;;;;;10.30;99.90;;;;;;5009942;28;19940;-71
2023/01/14 12:55:44;;;;;;;;;;;8.30;99.90;;;;;;5032413;28;19983;-70
2023/01/14 12:58:30;;;;;;;;;;;8.40;99.90;;;;;;5032522;28;19921;-70
2023/01/14 13:00:58;;;;;;;;;;;8.40;99.90;;;;;;5014838;28;19992;-71
2023/01/14 13:03:31;;;;;;;;;;;8.80;99.90;;;;;;5010733;28;20292;-70
2023/01/14 13:05:57;;;;;;;;;;;8.50;99.90;;;;;;5015518;28;20396;-70
2023/01/14 13:08:29;;;;;;;;;;;9.00;99.90;;;;;;5032680;28;19920;-71
2023/01/14 13:11:00;;;;;;;;;;;8.50;99.90;;;;;;5032669;28;19940;-72
2023/01/14 13:13:26;;;;;;;;;;;8.50;99.90;;;;;;5031260;28;20096;-71
2023/01/14 13:15:52;;;;;;;;;;;8.70;99.90;;;;;;5032189;28;20003;-71
2023/01/14 13:18:36;;;;;;;;;;;10.00;99.90;;;;;;5026345;28;19921;-70
2023/01/14 13:21:02;;;;;;;;;;;8.80;99.90;;;;;;5029865;28;19947;-71
2023/01/14 13:23:48;;;;;;;;;;;8.80;99.90;;;;;;5031540;28;19921;-72
2023/01/14 13:26:17;;;;;;;;;;;8.90;99.90;;;;;;4996021;28;19921;-73
2023/01/14 13:29:19;;;;;;;;;;;8.90;99.90;;;;;;5027541;28;19916;-75
2023/01/14 13:31:45;;;;;;;;;;;8.90;99.90;;;;;;4967412;28;19933;-75
2023/01/14 13:34:29;;;;;;;;;;;9.30;99.90;;;;;;5020023;28;19921;-81
2023/01/14 13:37:00;;;;;;;;;;;8.90;99.90;;;;;;5026049;28;19921;-73
2023/01/14 13:39:27;;;;;;;;;;;9.20;99.90;;;;;;5029093;28;19921;-69
2023/01/14 13:41:57;;;;;;;;;;;9.60;99.90;;;;;;5028205;28;19924;-68
2023/01/14 13:44:25;;;;;;;;;;;9.00;99.90;;;;;;5029655;28;20364;-69
2023/01/14 13:47:05;;;;;;;;;;;9.00;99.90;;;;;;5030836;28;19972;-68
2023/01/14 13:49:40;;;;;;;;;;;9.10;99.90;;;;;;5030352;28;20428;-69
2023/01/14 13:52:11;;;;;;;;;;;9.10;99.90;;;;;;5030542;28;20426;-68
2023/01/14 13:54:37;;;;;;;;;;;9.00;99.90;;;;;;5027411;28;20375;-68
2023/01/14 13:57:15;;;;;;;;;;;6.70;99.90;;;;;;5028665;28;20009;-68
2023/01/14 13:59:42;;;;;;;;;;;9.20;99.90;;;;;;5027305;28;19928;-68
2023/01/14 14:02:26;;;;;;;;;;;9.10;99.90;;;;;;5031080;28;20013;-68
2023/01/14 14:04:55;;;;;;;;;;;11.40;99.90;;;;;;5026504;28;19925;-70
2023/01/14 14:07:39;;;;;;;;;;;9.30;99.90;;;;;;5014577;28;19921;-70
2023/01/14 14:10:07;;;;;;;;;;;9.30;99.90;;;;;;5010402;28;20455;-67
2023/01/14 14:15:24;;;;;;;;;;;9.40;99.90;;;;;;5030589;28;20277;-67
2023/01/14 14:17:51;;;;;;;;;;;9.50;99.90;;;;;;5027384;28;19928;-68
2023/01/14 14:20:18;;;;;;;;;;;9.40;99.90;;;;;;5014112;28;19929;-69
2023/01/14 14:22:48;;;;;;;;;;;9.50;99.90;;;;;;5014893;28;19960;-69
2023/01/14 14:25:23;;;;;;;;;;;9.60;99.90;;;;;;5013307;28;20403;-69
2023/01/14 14:27:50;;;;;;;;;;;9.60;99.90;;;;;;5031692;28;19979;-68
2023/01/14 14:30:25;;;;;;;;;;;10.30;99.90;;;;;;5031594;28;20338;-68
2023/01/14 14:32:50;;;;;;;;;;;9.60;99.90;;;;;;5030869;28;19920;-68
2023/01/14 14:35:16;;;;;;;;;;;10.00;99.90;;;;;;5027426;28;20047;-68
2023/01/14 14:37:49;;;;;;;;;;;9.60;99.90;;;;;;5031215;28;20387;-69
2023/01/14 14:40:20;;;;;;;;;;;9.80;99.90;;;;;;5013445;28;20365;-70
2023/01/14 14:42:46;;;;;;;;;;;9.70;99.90;;;;;;5014290;28;19916;-69
2023/01/14 14:45:41;;;;;;;;;;;9.80;99.90;;;;;;5008782;28;20373;-70
2023/01/14 14:48:20;;;;;;;;;;;9.80;99.90;;;;;;5023016;28;19921;-69
2023/01/14 14:50:46;;;;;;;;;;;9.80;99.90;;;;;;5010834;28;19927;-69
2023/01/14 14:53:25;;;;;;;;;;;9.80;99.90;;;;;;5013282;28;19920;-69
2023/01/14 14:55:51;;;;;;;;;;;9.90;99.90;;;;;;5027616;28;20263;-69
2023/01/14 14:58:18;;;;;;;;;;;9.90;99.90;;;;;;5030871;28;19921;-69
2023/01/14 15:00:44;;;;;;;;;;;9.90;99.90;;;;;;5030855;28;20273;-70
2023/01/14 15:03:15;;;;;;;;;;;9.90;99.90;;;;;;5031211;28;19921;-69
2023/01/14 15:05:42;;;;;;;;;;;10.00;99.90;;;;;;5017885;28;19921;-70
2023/01/14 15:08:09;;;;;;;;;;;10.10;99.90;;;;;;5030195;28;20431;-71
2023/01/14 15:10:38;;;;;;;;;;;9.90;99.90;;;;;;5031582;28;19974;-68
2023/01/14 15:13:11;;;;;;;;;;;10.20;99.90;;;;;;5029487;28;20284;-70
2023/01/14 15:15:36;;;;;;;;;;;9.90;99.90;;;;;;5023890;28;19960;-69
2023/01/14 15:18:07;;;;;;;;;;;10.00;99.90;;;;;;5028897;28;20407;-68